Time;durP1;ratioP1;P1;durP2;ratioP2;P2;SDS_P1;SDS_P2;PMS_P1;PMS_P2;Temp;Humidity;BMP_temperature;BMP_pressure;BME280_temperature;BME280_humidity;BME280_pressure;Samples;Min_cycle;Max_cycle;Signal;HPM_P1;HPM_P2
2022/02/24 00:00:06;;;;;;;10.77;2.40;;;6.40;99.90;;;;;;5126177;27;20026;-61
2022/02/24 00:02:32;;;;;;;9.23;1.75;;;6.40;99.90;;;;;;5135165;27;20390;-60
2022/02/24 00:04:58;;;;;;;9.18;2.08;;;6.40;99.90;;;;;;5129963;27;20556;-60
2022/02/24 00:07:24;;;;;;;10.18;2.35;;;6.40;99.90;;;;;;5130827;27;20031;-60
2022/02/24 00:09:49;;;;;;;10.98;1.92;;;6.50;99.90;;;;;;5141759;27;20038;-60
2022/02/24 00:12:15;;;;;;;8.98;2.55;;;6.50;99.90;;;;;;5109986;28;20028;-60
2022/02/24 00:14:40;;;;;;;11.00;2.35;;;6.60;99.90;;;;;;5131483;27;20118;-60
2022/02/24 00:17:07;;;;;;;10.95;2.17;;;6.60;99.90;;;;;;5138350;27;20106;-60
2022/02/24 00:19:33;;;;;;;8.57;2.03;;;6.70;99.90;;;;;;5126589;27;20076;-60
2022/02/24 00:21:59;;;;;;;11.30;2.20;;;6.60;99.90;;;;;;5140605;27;20037;-60
2022/02/24 00:24:25;;;;;;;7.60;2.22;;;6.70;99.90;;;;;;5128151;27;20091;-60
2022/02/24 00:26:50;;;;;;;7.88;2.53;;;6.60;99.90;;;;;;5125427;27;20105;-60
2022/02/24 00:29:17;;;;;;;4.88;1.98;;;6.70;99.90;;;;;;5135757;27;20031;-60
2022/02/24 00:31:43;;;;;;;9.07;2.08;;;6.60;99.90;;;;;;5116061;27;20028;-60
2022/02/24 00:34:08;;;;;;;10.15;2.13;;;6.60;99.90;;;;;;5127976;27;20064;-61
2022/02/24 00:36:34;;;;;;;8.15;2.13;;;6.60;99.90;;;;;;5135211;27;20510;-60
2022/02/24 00:38:59;;;;;;;8.13;2.30;;;6.60;99.90;;;;;;5129612;27;20115;-60
2022/02/24 00:41:25;;;;;;;9.40;2.10;;;6.60;99.90;;;;;;5112877;28;20075;-63
2022/02/24 00:43:50;;;;;;;11.25;2.50;;;6.60;99.90;;;;;;5135472;27;20403;-60
2022/02/24 00:46:16;;;;;;;8.98;2.00;;;6.60;99.90;;;;;;5149628;27;20510;-60
2022/02/24 00:48:41;;;;;;;6.22;1.77;;;6.60;99.90;;;;;;5131773;27;20034;-60
2022/02/24 00:51:07;;;;;;;6.85;2.08;;;6.60;99.90;;;;;;5119752;27;20136;-60
2022/02/24 00:53:33;;;;;;;12.20;2.63;;;6.60;99.90;;;;;;5109064;28;20074;-60
2022/02/24 00:55:58;;;;;;;11.25;3.08;;;6.70;99.90;;;;;;5108695;28;20040;-60
2022/02/24 00:58:26;;;;;;;6.88;2.47;;;6.70;99.90;;;;;;5126531;28;20026;-60
2022/02/24 01:00:55;;;;;;;11.27;2.30;;;6.70;99.90;;;;;;5121974;27;20020;-60
2022/02/24 01:03:21;;;;;;;9.13;2.00;;;6.80;99.90;;;;;;5133098;27;20023;-60
2022/02/24 01:05:46;;;;;;;8.73;2.00;;;6.80;99.90;;;;;;5125477;27;20415;-60
2022/02/24 01:08:12;;;;;;;6.88;2.05;;;6.70;99.90;;;;;;5112648;27;20189;-60
2022/02/24 01:10:38;;;;;;;10.80;2.63;;;6.70;99.90;;;;;;5116818;27;20055;-60
2022/02/24 01:13:04;;;;;;;5.50;2.00;;;6.70;99.90;;;;;;5115467;27;20254;-61
2022/02/24 01:15:29;;;;;;;6.45;1.98;;;6.70;99.90;;;;;;5129821;27;20105;-60
2022/02/24 01:17:55;;;;;;;10.32;2.63;;;6.60;99.90;;;;;;5122757;27;20015;-62
2022/02/24 01:20:20;;;;;;;12.65;4.72;;;6.60;99.90;;;;;;5123972;27;20507;-62
2022/02/24 01:22:46;;;;;;;15.43;2.38;;;6.50;99.90;;;;;;5121006;27;20125;-62
2022/02/24 01:25:11;;;;;;;11.05;2.13;;;6.40;99.90;;;;;;5132338;27;20027;-62
2022/02/24 01:27:37;;;;;;;5.25;2.22;;;6.40;99.90;;;;;;5132990;27;20026;-62
2022/02/24 01:30:03;;;;;;;5.50;2.33;;;6.40;99.90;;;;;;5133274;27;20094;-62
2022/02/24 01:32:29;;;;;;;8.65;1.83;;;6.40;99.90;;;;;;5132760;27;20079;-62
2022/02/24 01:34:58;;;;;;;6.75;1.77;;;6.40;99.90;;;;;;5131105;27;20023;-61
2022/02/24 01:37:25;;;;;;;4.97;1.83;;;6.40;99.90;;;;;;5131391;27;20273;-61
2022/02/24 01:39:51;;;;;;;5.00;1.80;;;6.30;99.90;;;;;;5116294;27;20035;-61
2022/02/24 01:42:16;;;;;;;9.25;2.58;;;6.30;99.90;;;;;;5112400;28;20321;-61
2022/02/24 01:44:44;;;;;;;6.03;2.45;;;6.30;99.90;;;;;;5123621;27;20168;-62
2022/02/24 01:47:11;;;;;;;9.82;2.03;;;6.30;99.90;;;;;;5131409;27;20019;-62
2022/02/24 01:49:37;;;;;;;5.65;1.90;;;6.30;99.90;;;;;;5132582;27;20094;-62
2022/02/24 01:52:05;;;;;;;11.35;2.65;;;6.30;99.90;;;;;;5124730;27;20491;-62
2022/02/24 01:54:33;;;;;;;10.98;2.25;;;6.30;99.90;;;;;;5130571;27;20030;-61
2022/02/24 01:57:00;;;;;;;12.77;2.05;;;6.30;99.90;;;;;;5136796;27;20110;-60
2022/02/24 01:59:26;;;;;;;6.03;1.80;;;6.40;99.90;;;;;;5130535;27;20395;-61
2022/02/24 02:01:51;;;;;;;7.88;2.03;;;6.40;99.90;;;;;;5122741;27;20024;-61
2022/02/24 02:04:17;;;;;;;4.97;1.73;;;6.40;99.90;;;;;;5111001;28;20128;-58
2022/02/24 02:06:43;;;;;;;7.25;2.58;;;6.40;99.90;;;;;;5111167;27;20031;-59
2022/02/24 02:09:09;;;;;;;7.28;2.13;;;6.50;99.90;;;;;;5110923;28;20071;-59
2022/02/24 02:11:35;;;;;;;8.45;2.20;;;6.50;99.90;;;;;;5111132;28;20051;-59
2022/02/24 02:14:00;;;;;;;7.35;1.88;;;6.60;99.90;;;;;;5111081;28;20054;-59
2022/02/24 02:16:26;;;;;;;7.07;1.73;;;6.60;99.90;;;;;;5110167;27;20065;-59
2022/02/24 02:18:52;;;;;;;4.30;2.15;;;6.70;99.90;;;;;;5128722;27;20023;-59
2022/02/24 02:21:17;;;;;;;10.52;1.80;;;6.70;99.90;;;;;;5138862;27;20543;-60
2022/02/24 02:23:43;;;;;;;7.18;1.77;;;6.80;99.90;;;;;;5131130;27;20106;-59
2022/02/24 02:26:08;;;;;;;3.20;1.70;;;6.80;99.90;;;;;;5133241;27;20280;-59
2022/02/24 02:28:34;;;;;;;6.88;2.00;;;6.90;99.90;;;;;;5145779;27;20035;-60
2022/02/24 02:30:59;;;;;;;8.63;2.00;;;6.90;99.90;;;;;;5120679;27;20035;-59
2022/02/24 02:33:25;;;;;;;8.52;2.08;;;7.00;99.90;;;;;;5121826;27;20061;-60
2022/02/24 02:35:50;;;;;;;8.25;2.28;;;7.00;99.90;;;;;;5130583;27;20047;-60
2022/02/24 02:38:16;;;;;;;4.40;1.70;;;7.00;99.90;;;;;;5114870;27;20088;-59
2022/02/24 02:40:41;;;;;;;9.60;2.38;;;7.00;99.90;;;;;;5112283;27;20020;-61
2022/02/24 02:43:08;;;;;;;9.18;2.42;;;7.10;99.90;;;;;;5113304;27;20079;-61
2022/02/24 02:45:35;;;;;;;7.20;2.00;;;7.10;99.90;;;;;;5129868;27;20069;-61
2022/02/24 02:48:01;;;;;;;6.60;2.35;;;7.10;99.90;;;;;;5128910;27;20102;-61
2022/02/24 02:50:28;;;;;;;7.32;2.05;;;7.20;99.90;;;;;;5115424;27;20019;-61
2022/02/24 02:52:53;;;;;;;7.70;2.17;;;7.20;99.90;;;;;;5130379;27;20023;-60
2022/02/24 02:55:19;;;;;;;3.72;1.90;;;7.30;99.90;;;;;;5130785;27;20538;-60
2022/02/24 02:57:45;;;;;;;9.65;2.30;;;7.30;99.90;;;;;;5120308;27;20224;-60
2022/02/24 03:00:13;;;;;;;17.42;2.20;;;7.30;99.90;;;;;;5130889;27;20018;-59
2022/02/24 03:02:39;;;;;;;11.60;2.40;;;7.30;99.90;;;;;;5146915;27;20390;-59
2022/02/24 03:05:05;;;;;;;5.70;2.28;;;7.30;99.90;;;;;;5150024;27;20026;-60
2022/02/24 03:07:31;;;;;;;4.00;1.80;;;7.30;99.90;;;;;;5122067;27;20114;-60
2022/02/24 03:09:56;;;;;;;4.32;1.73;;;7.40;99.90;;;;;;5123742;27;20051;-60
2022/02/24 03:12:22;;;;;;;7.43;1.75;;;7.30;99.90;;;;;;5124006;27;20039;-60
2022/02/24 03:14:48;;;;;;;6.78;2.15;;;7.30;99.90;;;;;;5125830;27;20027;-61
2022/02/24 03:17:14;;;;;;;8.48;2.20;;;7.30;99.90;;;;;;5123287;27;20027;-60
2022/02/24 03:19:40;;;;;;;8.88;2.55;;;7.30;99.90;;;;;;5129487;27;20417;-61
2022/02/24 03:22:08;;;;;;;6.53;2.38;;;7.30;99.90;;;;;;5121552;27;20084;-60
2022/02/24 03:24:33;;;;;;;5.28;1.83;;;7.40;99.90;;;;;;5117329;27;20102;-61
2022/02/24 03:26:59;;;;;;;6.47;2.50;;;7.30;99.90;;;;;;5125018;27;20122;-59
2022/02/24 03:29:24;;;;;;;4.30;1.83;;;7.40;99.90;;;;;;5133813;27;20036;-59
2022/02/24 03:31:50;;;;;;;5.30;2.38;;;7.40;99.90;;;;;;5109705;27;20036;-59
2022/02/24 03:34:15;;;;;;;5.45;1.83;;;7.40;99.90;;;;;;5125504;27;20067;-61
2022/02/24 03:36:41;;;;;;;6.68;2.20;;;7.40;99.90;;;;;;5128893;27;20068;-62
2022/02/24 03:39:06;;;;;;;5.25;2.50;;;7.40;99.90;;;;;;5130251;27;20102;-61
2022/02/24 03:41:32;;;;;;;5.38;2.03;;;7.40;99.90;;;;;;5125302;27;20060;-61
2022/02/24 03:43:58;;;;;;;4.40;1.60;;;7.50;99.90;;;;;;5139083;27;20035;-61
2022/02/24 03:46:23;;;;;;;5.30;1.73;;;7.50;99.90;;;;;;5134252;27;20064;-61
2022/02/24 03:48:49;;;;;;;7.90;2.13;;;7.50;99.90;;;;;;5135026;27;20053;-61
2022/02/24 03:51:16;;;;;;;6.95;2.10;;;7.50;99.90;;;;;;5117358;27;20027;-61
2022/02/24 03:53:42;;;;;;;8.55;1.77;;;7.50;99.90;;;;;;5120480;27;20440;-61
2022/02/24 03:56:07;;;;;;;3.78;2.08;;;7.50;99.90;;;;;;5129629;27;20015;-61
2022/02/24 03:58:33;;;;;;;5.35;2.80;;;7.50;99.90;;;;;;5127761;27;20037;-61
2022/02/24 04:00:58;;;;;;;4.07;1.52;;;7.60;99.90;;;;;;5125859;27;20074;-62
2022/02/24 04:03:24;;;;;;;11.63;3.03;;;7.60;99.90;;;;;;5129976;27;20084;-62
2022/02/24 04:05:50;;;;;;;5.38;2.22;;;7.60;99.90;;;;;;5129561;27;20490;-62
2022/02/24 04:08:16;;;;;;;4.65;2.40;;;7.60;99.90;;;;;;5129523;27;20463;-61
2022/02/24 04:10:41;;;;;;;6.00;2.03;;;7.60;99.90;;;;;;5128180;27;20164;-61
2022/02/24 04:13:07;;;;;;;7.43;2.67;;;7.70;99.90;;;;;;5123759;27;20336;-61
2022/02/24 04:15:32;;;;;;;7.55;2.10;;;7.70;99.90;;;;;;5107457;28;20023;-61
2022/02/24 04:17:58;;;;;;;5.70;2.25;;;7.70;99.90;;;;;;5137560;27;20058;-61
2022/02/24 04:20:24;;;;;;;6.93;2.50;;;7.80;99.90;;;;;;5125750;27;20095;-61
2022/02/24 04:22:49;;;;;;;5.30;2.25;;;7.80;99.90;;;;;;5108980;28;20488;-61
2022/02/24 04:25:15;;;;;;;6.68;2.25;;;7.80;99.90;;;;;;5107446;28;20168;-61
2022/02/24 04:27:46;;;;;;;4.30;2.10;;;7.80;99.90;;;;;;5123715;27;20110;-61
2022/02/24 04:30:12;;;;;;;8.48;2.55;;;7.80;99.90;;;;;;5128548;27;20038;-60
2022/02/24 04:32:39;;;;;;;6.32;2.03;;;7.80;99.90;;;;;;5126694;27;20023;-61
2022/02/24 04:35:06;;;;;;;6.82;2.22;;;7.80;99.90;;;;;;5138740;27;20019;-61
2022/02/24 04:37:31;;;;;;;6.47;2.03;;;7.80;99.90;;;;;;5150301;27;20437;-61
2022/02/24 04:39:57;;;;;;;7.57;2.03;;;7.80;99.90;;;;;;5138388;27;20114;-60
2022/02/24 04:42:22;;;;;;;7.45;1.90;;;7.90;99.90;;;;;;5128883;27;20023;-61
2022/02/24 04:44:48;;;;;;;7.25;2.88;;;7.90;99.90;;;;;;5129170;27;20119;-60
2022/02/24 04:47:13;;;;;;;5.75;2.25;;;7.90;99.90;;;;;;5124151;27;20248;-60
2022/02/24 04:49:39;;;;;;;8.20;2.55;;;7.90;99.90;;;;;;5136783;27;20370;-61
2022/02/24 04:52:05;;;;;;;6.00;2.70;;;8.00;99.90;;;;;;5129375;28;20023;-61
2022/02/24 04:54:30;;;;;;;4.88;2.33;;;8.00;99.90;;;;;;5128817;28;20479;-61
2022/02/24 04:56:56;;;;;;;5.40;2.47;;;8.00;99.90;;;;;;5129400;27;20085;-61
2022/02/24 04:59:21;;;;;;;3.05;1.73;;;8.00;99.90;;;;;;5114802;28;20020;-61
2022/02/24 05:01:47;;;;;;;5.60;2.00;;;8.00;99.90;;;;;;5124996;27;20024;-62
2022/02/24 05:04:13;;;;;;;5.85;2.20;;;8.10;99.90;;;;;;5141661;27;20386;-61
2022/02/24 05:06:38;;;;;;;4.65;2.25;;;8.20;99.90;;;;;;5139888;27;20031;-61
2022/02/24 05:09:04;;;;;;;8.65;2.78;;;8.10;99.90;;;;;;5129366;27;20408;-61
2022/02/24 05:11:29;;;;;;;4.15;1.73;;;8.20;99.90;;;;;;5111618;27;20028;-61
2022/02/24 05:13:55;;;;;;;7.82;3.08;;;8.20;99.90;;;;;;5120059;27;20089;-60
2022/02/24 05:16:20;;;;;;;7.68;2.20;;;8.20;99.90;;;;;;5128313;28;20031;-59
2022/02/24 05:18:46;;;;;;;6.40;1.88;;;8.20;99.90;;;;;;5127801;28;20045;-60
2022/02/24 05:21:12;;;;;;;7.63;2.40;;;8.20;99.90;;;;;;5118095;28;20084;-59
2022/02/24 05:23:40;;;;;;;6.15;2.10;;;8.20;99.90;;;;;;5108524;28;20028;-59
2022/02/24 05:26:05;;;;;;;7.70;2.40;;;8.10;99.90;;;;;;5106719;28;20032;-59
2022/02/24 05:28:30;;;;;;;8.27;3.20;;;8.10;99.90;;;;;;5113111;28;20023;-59
2022/02/24 05:30:59;;;;;;;7.22;2.75;;;8.10;99.90;;;;;;5118503;27;20027;-58
2022/02/24 05:33:25;;;;;;;8.18;2.58;;;8.10;99.90;;;;;;5122995;27;20380;-58
2022/02/24 05:35:51;;;;;;;7.30;2.55;;;8.10;99.90;;;;;;5121056;27;20463;-58
2022/02/24 05:38:18;;;;;;;6.38;2.58;;;8.00;99.90;;;;;;5111031;28;20027;-58
2022/02/24 05:40:43;;;;;;;4.22;2.55;;;8.10;99.90;;;;;;5116842;27;20048;-58
2022/02/24 05:43:09;;;;;;;5.90;2.45;;;8.10;99.90;;;;;;5114200;28;20094;-58
2022/02/24 05:45:34;;;;;;;4.63;2.10;;;8.10;99.90;;;;;;5113882;27;20390;-58
2022/02/24 05:48:00;;;;;;;7.28;2.47;;;8.10;99.90;;;;;;5118357;27;20024;-59
2022/02/24 05:50:25;;;;;;;7.93;2.38;;;8.10;99.90;;;;;;5116709;27;20020;-59
2022/02/24 05:52:51;;;;;;;6.65;2.38;;;8.10;99.90;;;;;;5122925;27;20023;-60
2022/02/24 05:55:16;;;;;;;11.27;3.08;;;8.20;99.90;;;;;;5118698;27;20023;-61
2022/02/24 05:57:43;;;;;;;9.00;3.22;;;8.20;99.90;;;;;;5123036;27;20050;-61
2022/02/24 06:00:09;;;;;;;10.60;2.92;;;8.20;99.90;;;;;;5119650;27;20030;-61
2022/02/24 06:02:37;;;;;;;10.80;2.70;;;8.20;99.90;;;;;;5120293;27;20504;-60
2022/02/24 06:05:04;;;;;;;10.63;3.20;;;8.10;99.90;;;;;;5116830;27;20583;-60
2022/02/24 06:07:29;;;;;;;8.60;3.33;;;8.10;99.90;;;;;;5125315;27;20050;-58
2022/02/24 06:09:55;;;;;;;6.72;2.85;;;8.10;99.90;;;;;;5121875;27;20058;-59
2022/02/24 06:12:22;;;;;;;4.80;2.72;;;8.10;99.90;;;;;;5122910;27;20387;-58
2022/02/24 06:14:48;;;;;;;9.48;3.22;;;8.10;99.90;;;;;;5121628;27;20035;-58
2022/02/24 06:17:13;;;;;;;8.52;2.65;;;8.10;99.90;;;;;;5124971;27;20094;-58
2022/02/24 06:19:39;;;;;;;11.15;3.53;;;8.10;99.90;;;;;;5123129;27;20015;-60
2022/02/24 06:22:08;;;;;;;6.70;3.63;;;8.10;99.90;;;;;;5129820;27;20022;-60
2022/02/24 06:24:33;;;;;;;8.82;3.40;;;8.10;99.90;;;;;;5120083;27;20023;-59
2022/02/24 06:26:59;;;;;;;10.93;3.13;;;8.20;99.90;;;;;;5123377;27;20072;-59
2022/02/24 06:29:24;;;;;;;6.07;2.88;;;8.10;99.90;;;;;;5114261;27;20379;-62
2022/02/24 06:31:50;;;;;;;9.85;3.70;;;8.10;99.90;;;;;;5113449;27;20055;-61
2022/02/24 06:34:15;;;;;;;7.95;2.97;;;8.10;99.90;;;;;;5122574;27;20098;-60
2022/02/24 06:36:41;;;;;;;10.75;3.40;;;8.10;99.90;;;;;;5125573;27;20429;-58
2022/02/24 06:39:07;;;;;;;13.50;3.40;;;8.10;99.90;;;;;;5116147;27;20467;-60
2022/02/24 06:41:32;;;;;;;10.65;3.42;;;8.10;99.90;;;;;;5118366;27;20023;-59
2022/02/24 06:44:01;;;;;;;12.25;2.90;;;8.10;99.90;;;;;;5113441;27;20023;-60
2022/02/24 06:46:26;;;;;;;9.25;2.90;;;8.10;99.90;;;;;;5115183;27;20483;-58
2022/02/24 06:48:52;;;;;;;9.88;2.70;;;8.10;99.90;;;;;;5113376;27;20122;-57
2022/02/24 06:51:17;;;;;;;11.35;2.92;;;8.10;99.90;;;;;;5115490;27;20032;-60
2022/02/24 06:53:43;;;;;;;6.20;2.40;;;8.10;99.90;;;;;;5121655;27;20027;-58
2022/02/24 06:56:08;;;;;;;5.80;3.13;;;8.10;99.90;;;;;;5118997;27;20099;-59
2022/02/24 06:58:37;;;;;;;12.63;3.58;;;8.10;99.90;;;;;;5119496;27;20031;-59
2022/02/24 07:01:03;;;;;;;8.98;3.00;;;8.10;99.90;;;;;;5122844;27;20087;-59
2022/02/24 07:03:29;;;;;;;7.55;2.85;;;8.10;99.90;;;;;;5118023;27;20015;-59
2022/02/24 07:05:54;;;;;;;6.38;2.67;;;8.10;99.90;;;;;;5117016;27;20023;-59
2022/02/24 07:08:20;;;;;;;6.40;2.50;;;8.10;99.90;;;;;;5117231;27;20080;-59
2022/02/24 07:10:45;;;;;;;7.72;2.60;;;8.00;99.90;;;;;;5118956;27;20080;-59
2022/02/24 07:13:11;;;;;;;6.35;2.97;;;8.10;99.90;;;;;;5120749;27;20053;-59
2022/02/24 07:15:36;;;;;;;6.32;2.42;;;8.00;99.90;;;;;;5113659;27;20065;-59
2022/02/24 07:18:02;;;;;;;6.28;2.45;;;8.00;99.90;;;;;;5115895;27;20085;-59
2022/02/24 07:20:28;;;;;;;5.40;2.10;;;8.00;99.90;;;;;;5116882;27;20027;-59
2022/02/24 07:22:53;;;;;;;6.68;2.78;;;8.00;99.90;;;;;;5116470;27;20208;-60
2022/02/24 07:25:19;;;;;;;6.78;3.28;;;8.10;99.90;;;;;;5116410;27;20310;-60
2022/02/24 07:27:44;;;;;;;6.80;2.40;;;8.10;99.90;;;;;;5114134;27;20075;-60
2022/02/24 07:30:11;;;;;;;8.20;3.22;;;8.10;99.90;;;;;;5123593;27;20026;-60
2022/02/24 07:32:37;;;;;;;7.22;3.03;;;8.20;99.90;;;;;;5114282;27;20027;-60
2022/02/24 07:35:03;;;;;;;7.75;2.40;;;8.20;99.90;;;;;;5122151;27;20531;-60
2022/02/24 07:37:29;;;;;;;5.25;2.63;;;8.20;99.90;;;;;;5117471;27;20054;-61
2022/02/24 07:39:54;;;;;;;6.68;2.88;;;8.30;99.90;;;;;;5118125;27;20459;-61
2022/02/24 07:42:20;;;;;;;6.60;2.95;;;8.30;99.90;;;;;;5117404;27;20384;-59
2022/02/24 07:44:46;;;;;;;4.78;2.78;;;8.30;99.90;;;;;;5116863;27;20025;-60
2022/02/24 07:47:15;;;;;;;12.07;2.67;;;8.30;99.90;;;;;;5121962;27;20023;-59
2022/02/24 07:49:41;;;;;;;11.20;3.10;;;8.50;99.90;;;;;;5118808;27;20213;-59
2022/02/24 07:52:07;;;;;;;5.20;2.95;;;8.50;99.90;;;;;;5117911;27;20094;-61
2022/02/24 07:54:33;;;;;;;8.65;3.05;;;8.60;99.90;;;;;;5115641;27;20023;-60
2022/02/24 07:56:59;;;;;;;6.03;2.70;;;8.60;99.90;;;;;;5115864;27;20085;-60
2022/02/24 07:59:24;;;;;;;14.77;3.78;;;8.70;99.90;;;;;;5115474;27;20011;-60
2022/02/24 08:01:50;;;;;;;5.65;2.90;;;8.70;99.90;;;;;;5117302;27;20027;-60
2022/02/24 08:04:15;;;;;;;13.18;3.03;;;8.70;99.90;;;;;;5118284;27;20038;-60
2022/02/24 08:06:42;;;;;;;10.55;3.28;;;8.80;99.90;;;;;;5117115;27;20437;-58
2022/02/24 08:09:08;;;;;;;7.75;2.53;;;8.90;99.90;;;;;;5116078;27;20023;-58
2022/02/24 08:11:34;;;;;;;10.55;2.63;;;8.90;99.90;;;;;;5117459;27;20023;-57
2022/02/24 08:14:01;;;;;;;7.30;2.67;;;8.90;99.90;;;;;;5119708;27;20023;-58
2022/02/24 08:16:26;;;;;;;14.63;4.07;;;9.00;99.90;;;;;;5116616;27;20015;-58
2022/02/24 08:18:52;;;;;;;7.85;2.50;;;9.00;99.90;;;;;;5117441;27;20417;-58
2022/02/24 08:21:17;;;;;;;8.35;3.00;;;9.10;99.90;;;;;;5117222;27;20038;-58
2022/02/24 08:23:44;;;;;;;12.20;3.15;;;9.00;99.90;;;;;;5117889;27;20432;-58
2022/02/24 08:26:10;;;;;;;7.70;2.35;;;9.10;99.90;;;;;;5126479;27;20512;-58
2022/02/24 08:28:36;;;;;;;8.98;2.88;;;9.10;99.90;;;;;;5115713;27;20100;-58
2022/02/24 08:31:01;;;;;;;10.68;2.67;;;9.20;99.90;;;;;;5118950;27;20027;-59
2022/02/24 08:33:27;;;;;;;10.68;2.83;;;9.20;99.90;;;;;;5111580;27;20094;-58
2022/02/24 08:35:53;;;;;;;9.60;2.92;;;9.20;99.90;;;;;;5123884;27;20019;-58
2022/02/24 08:38:19;;;;;;;8.32;2.67;;;9.10;99.90;;;;;;5117333;28;20756;-58
2022/02/24 08:40:44;;;;;;;7.03;3.10;;;9.10;99.90;;;;;;5118319;28;20112;-58
2022/02/24 08:43:10;;;;;;;9.02;3.00;;;9.20;99.90;;;;;;5118900;28;20077;-58
2022/02/24 08:45:36;;;;;;;11.70;2.90;;;9.30;99.90;;;;;;5114866;28;20045;-58
2022/02/24 08:48:04;;;;;;;6.18;2.53;;;9.20;99.90;;;;;;5115088;28;20030;-58
2022/02/24 08:50:29;;;;;;;8.10;2.80;;;9.20;99.90;;;;;;5118420;27;20023;-60
2022/02/24 08:52:56;;;;;;;11.18;2.95;;;9.10;99.90;;;;;;5123066;27;20023;-58
2022/02/24 08:55:22;;;;;;;10.93;3.25;;;9.00;99.90;;;;;;5115920;27;20015;-58
2022/02/24 08:57:47;;;;;;;9.48;3.08;;;9.10;99.90;;;;;;5113887;27;20185;-58
2022/02/24 09:00:13;;;;;;;8.63;2.97;;;9.10;99.90;;;;;;5115999;28;20023;-58
2022/02/24 09:02:39;;;;;;;6.03;2.55;;;9.10;99.90;;;;;;5116297;28;20039;-59
2022/02/24 09:05:05;;;;;;;13.43;2.85;;;9.10;99.90;;;;;;5115157;28;20028;-59
2022/02/24 09:07:30;;;;;;;11.57;2.72;;;9.00;99.90;;;;;;5119039;27;20098;-58
2022/02/24 09:09:56;;;;;;;7.80;2.95;;;9.10;99.90;;;;;;5118141;28;20381;-59
2022/02/24 09:12:22;;;;;;;8.43;3.50;;;9.10;99.90;;;;;;5113852;28;20144;-58
2022/02/24 09:14:48;;;;;;;5.57;2.25;;;9.00;99.90;;;;;;5116539;28;20011;-59
2022/02/24 09:17:13;;;;;;;7.57;3.15;;;9.00;99.90;;;;;;5116886;28;20032;-59
2022/02/24 09:19:39;;;;;;;9.00;2.92;;;9.00;99.90;;;;;;5120464;27;20508;-58
2022/02/24 09:22:06;;;;;;;8.90;2.65;;;9.00;99.90;;;;;;5128111;27;20031;-58
2022/02/24 09:24:33;;;;;;;9.50;3.00;;;9.00;99.90;;;;;;5121414;27;20028;-59
2022/02/24 09:26:58;;;;;;;8.52;2.58;;;9.10;99.90;;;;;;5121503;27;20399;-58
2022/02/24 09:29:24;;;;;;;10.35;3.10;;;9.00;99.90;;;;;;5122935;27;20023;-57
2022/02/24 09:31:49;;;;;;;11.30;2.30;;;9.00;99.90;;;;;;5127712;27;20032;-57
2022/02/24 09:34:16;;;;;;;5.80;2.10;;;9.00;99.90;;;;;;5124412;27;20018;-57
2022/02/24 09:36:42;;;;;;;7.05;2.65;;;9.10;99.90;;;;;;5128309;27;20026;-58
2022/02/24 09:39:08;;;;;;;8.40;2.50;;;9.20;99.90;;;;;;5119918;27;20019;-57
2022/02/24 09:41:35;;;;;;;6.93;2.13;;;9.20;99.90;;;;;;5128249;27;20027;-58
2022/02/24 09:44:00;;;;;;;13.07;2.55;;;9.20;99.90;;;;;;5121893;27;20030;-57
2022/02/24 09:46:27;;;;;;;9.40;2.53;;;9.30;99.90;;;;;;5119564;27;20094;-58
2022/02/24 09:48:55;;;;;;;5.68;2.28;;;9.40;99.90;;;;;;5124341;27;21147;-58
2022/02/24 09:51:21;;;;;;;5.80;2.72;;;9.50;99.90;;;;;;5127427;27;20135;-59
2022/02/24 09:53:48;;;;;;;9.13;2.47;;;9.50;99.90;;;;;;5118545;27;20558;-58
2022/02/24 09:56:34;;;;;;;8.57;2.92;;;9.50;99.90;;;;;;5128324;27;20356;-59
2022/02/24 09:59:00;;;;;;;9.98;3.13;;;9.50;99.90;;;;;;5119155;27;20027;-59
2022/02/24 10:01:26;;;;;;;10.27;2.58;;;9.60;99.90;;;;;;5121152;27;20049;-58
2022/02/24 10:03:57;;;;;;;8.18;2.20;;;9.70;99.90;;;;;;5121770;27;20019;-59
2022/02/24 10:06:31;;;;;;;5.25;2.22;;;9.90;99.60;;;;;;5120182;27;20088;-59
2022/02/24 10:08:57;;;;;;;5.82;2.10;;;10.00;99.40;;;;;;5119354;27;20027;-58
2022/02/24 10:11:27;;;;;;;9.60;2.35;;;10.00;98.80;;;;;;5120197;27;20027;-59
2022/02/24 10:14:00;;;;;;;8.43;2.25;;;10.00;99.50;;;;;;5118013;27;20028;-57
2022/02/24 10:16:27;;;;;;;9.98;2.40;;;10.00;99.10;;;;;;5117125;27;20041;-57
2022/02/24 10:18:54;;;;;;;5.60;2.15;;;10.10;98.70;;;;;;5119697;27;20020;-57
2022/02/24 10:21:20;;;;;;;8.55;2.38;;;10.10;98.90;;;;;;5118173;27;20051;-58
2022/02/24 10:23:48;;;;;;;5.47;2.25;;;10.10;98.70;;;;;;5119389;27;20341;-58
2022/02/24 10:26:15;;;;;;;5.70;2.22;;;10.20;98.40;;;;;;5118645;27;20016;-57
2022/02/24 10:28:49;;;;;;;9.55;2.13;;;10.10;98.70;;;;;;5117349;27;20106;-57
2022/02/24 10:31:19;;;;;;;5.50;2.30;;;10.30;98.90;;;;;;5121047;27;20111;-59
2022/02/24 10:33:48;;;;;;;10.10;2.42;;;10.50;98.20;;;;;;5120831;27;20015;-58
2022/02/24 10:36:18;;;;;;;7.38;2.70;;;10.60;97.60;;;;;;5123131;27;20042;-57
2022/02/24 10:38:57;;;;;;;13.77;2.35;;;10.50;97.30;;;;;;5116547;27;20027;-57
2022/02/24 10:41:31;;;;;;;14.38;3.50;;;10.60;97.50;;;;;;5124262;27;20058;-58
2022/02/24 10:44:20;;;;;;;7.20;2.67;;;10.90;97.10;;;;;;5119883;27;20484;-58
2022/02/24 10:47:07;;;;;;;8.45;2.50;;;11.00;96.40;;;;;;5119791;27;20488;-58
2022/02/24 10:49:38;;;;;;;7.80;2.92;;;11.40;95.40;;;;;;5117210;27;20024;-57
2022/02/24 10:52:18;;;;;;;8.52;2.15;;;12.20;93.80;;;;;;5117601;27;20053;-58
2022/02/24 10:55:03;;;;;;;8.57;1.92;;;13.30;91.00;;;;;;5119160;27;20020;-58
2022/02/24 10:57:29;;;;;;;6.45;2.28;;;14.20;88.80;;;;;;5119763;27;20019;-58
2022/02/24 10:59:57;;;;;;;5.70;2.30;;;14.70;84.70;;;;;;5119660;27;20123;-58
2022/02/24 11:02:24;;;;;;;6.95;2.15;;;15.50;79.40;;;;;;5118482;27;20106;-58
2022/02/24 11:04:52;;;;;;;5.28;2.58;;;15.80;75.50;;;;;;5115109;27;20089;-57
2022/02/24 11:07:17;;;;;;;5.90;2.80;;;15.00;75.50;;;;;;5124459;27;20054;-58
2022/02/24 11:09:44;;;;;;;6.97;2.35;;;14.70;77.00;;;;;;5117131;27;20055;-58
2022/02/24 11:12:12;;;;;;;6.00;2.42;;;14.90;77.40;;;;;;5120951;27;20031;-58
2022/02/24 11:14:41;;;;;;;6.70;2.22;;;14.70;77.40;;;;;;5119337;27;20014;-58
2022/02/24 11:17:11;;;;;;;4.82;2.30;;;14.50;77.00;;;;;;5115238;27;20011;-58
2022/02/24 11:19:38;;;;;;;9.02;3.17;;;14.40;77.00;;;;;;5119641;27;20018;-57
2022/02/24 11:22:06;;;;;;;6.05;2.58;;;14.60;76.10;;;;;;5118024;27;20031;-58
2022/02/24 11:24:33;;;;;;;8.57;3.05;;;14.20;77.10;;;;;;5113896;27;20242;-58
2022/02/24 11:27:11;;;;;;;7.30;2.53;;;14.10;78.30;;;;;;5118403;27;20055;-58
2022/02/24 11:29:59;;;;;;;7.18;2.75;;;13.80;79.10;;;;;;5120325;27;20036;-58
2022/02/24 11:32:27;;;;;;;5.80;2.38;;;13.90;78.60;;;;;;5113206;27;20031;-58
2022/02/24 11:35:07;;;;;;;5.13;2.72;;;14.20;79.20;;;;;;5119470;27;20030;-58
2022/02/24 11:37:55;;;;;;;11.93;2.45;;;13.60;79.70;;;;;;5114025;27;20535;-58
2022/02/24 11:40:32;;;;;;;5.22;2.35;;;13.60;79.60;;;;;;5116259;27;20395;-59
2022/02/24 11:43:09;;;;;;;5.20;2.33;;;13.70;79.80;;;;;;5114677;27;20020;-58
2022/02/24 11:45:38;;;;;;;8.50;2.33;;;14.10;78.90;;;;;;5119969;27;20384;-56
2022/02/24 11:48:07;;;;;;;8.88;3.17;;;14.00;79.30;;;;;;5115267;27;20057;-57
2022/02/24 11:50:36;;;;;;;5.38;2.50;;;14.30;78.80;;;;;;5113935;27;20656;-58
2022/02/24 11:53:05;;;;;;;5.68;2.53;;;14.70;76.70;;;;;;5108393;27;20034;-57
2022/02/24 11:56:16;;;;;;;9.65;2.85;;;14.60;77.50;;;;;;5109155;27;20498;-58
2022/02/24 11:58:42;;;;;;;;;;;14.50;77.50;;;;;;5113750;27;20051;-58
2022/02/24 12:01:29;;;;;;;5.20;2.40;;;14.60;77.80;;;;;;5110043;27;19908;-58
2022/02/24 12:03:57;;;;;;;7.28;2.50;;;15.80;75.10;;;;;;5112606;27;20020;-57
2022/02/24 12:06:47;;;;;;;7.07;2.42;;;16.30;72.10;;;;;;5106239;28;20034;-57
2022/02/24 12:09:38;;;;;;;9.60;2.78;;;16.30;71.40;;;;;;5110760;27;20035;-57
2022/02/24 12:12:10;;;;;;;5.55;2.13;;;16.00;71.20;;;;;;5111647;27;20043;-58
2022/02/24 12:14:36;;;;;;;5.45;2.45;;;15.50;73.20;;;;;;5117183;27;20039;-58
2022/02/24 12:17:23;;;;;;;7.20;2.17;;;15.00;74.60;;;;;;5116647;27;20046;-58
2022/02/24 12:19:50;;;;;;;6.05;2.30;;;14.30;76.00;;;;;;5116358;27;20076;-59
2022/02/24 12:22:34;;;;;;;4.32;2.10;;;13.80;77.70;;;;;;5114232;27;20042;-58
2022/02/24 12:25:14;;;;;;;4.68;2.22;;;13.20;80.10;;;;;;5117687;27;20525;-57
2022/02/24 12:28:05;;;;;;;6.97;2.78;;;13.00;81.50;;;;;;5128084;27;20058;-58
2022/02/24 12:30:38;;;;;;;10.75;2.70;;;12.60;82.50;;;;;;5111224;27;20027;-58
2022/02/24 12:33:09;;;;;;;10.95;2.67;;;12.20;84.20;;;;;;5116381;27;20031;-57
2022/02/24 12:35:38;;;;;;;12.93;2.60;;;12.00;86.10;;;;;;5130156;27;20122;-58
2022/02/24 12:38:05;;;;;;;6.40;2.88;;;12.00;86.40;;;;;;5146541;27;20022;-58
2022/02/24 12:40:33;;;;;;;7.07;2.38;;;11.80;87.10;;;;;;5136377;27;20499;-58
2022/02/24 12:43:00;;;;;;;8.25;2.83;;;11.80;87.90;;;;;;5126952;27;20031;-57
2022/02/24 12:45:28;;;;;;;7.43;2.30;;;11.70;88.00;;;;;;5126387;27;20027;-58
2022/02/24 12:47:56;;;;;;;6.65;2.63;;;11.70;89.10;;;;;;5129507;27;20438;-57
2022/02/24 12:50:30;;;;;;;7.85;2.78;;;11.70;89.40;;;;;;5137933;27;20098;-57
2022/02/24 12:53:15;;;;;;;11.18;2.88;;;11.80;90.00;;;;;;5138918;27;20030;-59